Time;durP1;ratioP1;P1;durP2;ratioP2;P2;SDS_P1;SDS_P2;PMS_P1;PMS_P2;Temp;Humidity;BMP_temperature;BMP_pressure;BME280_temperature;BME280_humidity;BME280_pressure;Samples;Min_cycle;Max_cycle;Signal;HPM_P1;HPM_P2
2021/12/17 00:02:06;;;;;;;128.10;30.50;;;8.50;99.90;;;;;;4991293;28;20086;-85
2021/12/17 00:06:59;;;;;;;122.38;29.10;;;8.50;99.90;;;;;;4970427;28;20455;-85
2021/12/17 00:09:25;;;;;;;104.18;27.92;;;8.50;99.90;;;;;;4990858;28;20141;-85
2021/12/17 00:11:50;;;;;;;106.90;27.15;;;8.50;99.90;;;;;;4991112;28;20061;-85
2021/12/17 00:14:25;;;;;;;136.55;30.35;;;8.50;99.90;;;;;;4990630;28;20477;-85
2021/12/17 00:16:51;;;;;;;139.98;30.58;;;8.50;99.90;;;;;;4976470;28;20046;-85
2021/12/17 00:19:35;;;;;;;119.55;29.08;;;8.50;99.90;;;;;;4990752;28;20046;-85
2021/12/17 00:48:22;;;;;;;133.40;31.45;;;8.50;99.90;;;;;;4990892;28;20058;-85
2021/12/17 00:50:50;;;;;;;132.30;30.23;;;8.50;99.90;;;;;;4989111;28;20112;-84
2021/12/17 00:52:35;;;;;;;147.45;30.35;;;8.50;99.90;;;;;;4974749;28;20537;-84
2021/12/17 00:55:03;;;;;;;107.88;28.05;;;8.50;99.90;;;;;;4990313;28;20054;-84
2021/12/17 00:57:35;;;;;;;140.55;30.20;;;8.50;99.90;;;;;;4990440;28;20065;-83
2021/12/17 01:00:02;;;;;;;136.15;30.13;;;8.50;99.90;;;;;;4989791;28;20151;-82
2021/12/17 01:02:30;;;;;;;138.43;30.88;;;8.90;99.90;;;;;;4990386;28;20434;-84
2021/12/17 01:04:59;;;;;;;145.63;32.05;;;8.50;99.90;;;;;;4990460;28;20054;-84
2021/12/17 01:07:27;;;;;;;135.75;31.92;;;8.50;99.90;;;;;;4990286;28;20050;-84
2021/12/17 01:09:53;;;;;;;177.75;34.20;;;8.50;99.90;;;;;;4975609;28;20439;-84
2021/12/17 01:12:19;;;;;;;153.38;34.33;;;8.50;99.90;;;;;;4993349;28;20141;-84
2021/12/17 01:14:45;;;;;;;187.70;36.22;;;8.50;99.90;;;;;;4977837;28;20068;-84
2021/12/17 01:17:11;;;;;;;165.95;34.40;;;8.50;99.90;;;;;;4977395;28;20081;-84
2021/12/17 01:35:28;;;;;;;127.05;29.80;;;8.50;99.90;;;;;;4992917;28;20065;-84
2021/12/17 01:43:15;;;;;;;98.55;27.50;;;8.50;99.90;;;;;;4993341;28;20506;-84
2021/12/17 01:45:41;;;;;;;124.82;29.70;;;8.50;99.90;;;;;;4993696;28;20081;-85
2021/12/17 01:48:11;;;;;;;126.00;29.52;;;8.50;99.90;;;;;;4977095;28;20420;-84
2021/12/17 02:01:24;;;;;;;112.50;29.17;;;8.50;99.90;;;;;;4978882;28;20104;-84
2021/12/17 02:03:50;;;;;;;127.57;29.58;;;8.50;99.90;;;;;;4977059;28;20468;-85
2021/12/17 02:06:17;;;;;;;107.50;27.92;;;8.70;99.90;;;;;;4992990;28;20082;-84
2021/12/17 02:08:46;;;;;;;114.70;28.52;;;8.50;99.90;;;;;;4992806;28;20103;-84
2021/12/17 02:32:34;;;;;;;107.75;25.58;;;8.80;99.90;;;;;;4977099;28;20157;-86
2021/12/17 02:37:40;;;;;;;87.57;24.50;;;8.40;99.90;;;;;;4992575;28;20073;-85
2021/12/17 02:42:28;;;;;;;79.10;22.30;;;8.40;99.90;;;;;;4992475;28;20121;-85
2021/12/17 02:45:34;;;;;;;66.10;20.55;;;8.40;99.90;;;;;;4992208;28;20475;-85
2021/12/17 02:48:01;;;;;;;64.15;21.15;;;8.40;99.90;;;;;;4992259;28;20050;-85
2021/12/17 02:50:27;;;;;;;64.65;20.42;;;8.70;99.90;;;;;;4975722;28;20062;-85
2021/12/17 02:52:54;;;;;;;65.70;19.98;;;8.40;99.90;;;;;;4976051;28;20050;-85
2021/12/17 02:55:20;;;;;;;60.90;21.20;;;8.40;99.90;;;;;;4975502;28;20062;-85
2021/12/17 02:57:46;;;;;;;75.65;22.70;;;8.40;99.90;;;;;;4975729;28;20379;-85
2021/12/17 03:00:12;;;;;;;60.90;19.95;;;8.40;99.90;;;;;;4975981;28;20054;-85
2021/12/17 03:02:39;;;;;;;70.45;21.83;;;8.30;99.90;;;;;;4974959;28;20082;-85
2021/12/17 03:05:06;;;;;;;80.15;22.35;;;8.30;99.90;;;;;;4959822;28;20426;-85
2021/12/17 03:07:36;;;;;;;68.35;20.95;;;8.30;99.90;;;;;;4991546;28;20463;-85
2021/12/17 03:10:04;;;;;;;61.25;19.35;;;8.30;99.90;;;;;;4976314;28;20396;-85
2021/12/17 03:12:50;;;;;;;58.92;20.15;;;8.30;99.90;;;;;;4975408;28;20073;-84
2021/12/17 03:23:50;;;;;;;58.38;19.27;;;8.30;99.90;;;;;;4978056;28;20090;-84
2021/12/17 03:26:21;;;;;;;65.82;20.10;;;8.30;99.90;;;;;;4991242;28;20093;-85
2021/12/17 03:28:48;;;;;;;67.13;19.85;;;8.30;99.90;;;;;;4991347;28;20379;-85
2021/12/17 03:31:14;;;;;;;54.90;18.15;;;8.20;99.90;;;;;;4975238;28;20435;-85
2021/12/17 03:33:41;;;;;;;47.47;17.00;;;8.20;99.90;;;;;;4990309;28;20449;-85
2021/12/17 03:36:07;;;;;;;51.22;18.48;;;8.30;99.90;;;;;;4974906;28;20122;-85
2021/12/17 03:38:33;;;;;;;55.20;19.25;;;8.30;99.90;;;;;;4974989;28;20062;-85
2021/12/17 03:41:36;;;;;;;53.05;17.90;;;8.20;99.90;;;;;;4991296;28;20058;-85
2021/12/17 03:43:52;;;;;;;59.03;18.73;;;8.30;99.90;;;;;;4989149;28;20081;-85
2021/12/17 03:46:18;;;;;;;66.07;19.48;;;8.30;99.90;;;;;;4975040;28;20046;-85
2021/12/17 03:48:44;;;;;;;67.00;19.30;;;8.30;99.90;;;;;;4974332;28;20400;-85
2021/12/17 03:51:16;;;;;;;85.22;21.00;;;8.20;99.90;;;;;;4975094;28;20129;-85
2021/12/17 03:53:52;;;;;;;49.45;18.40;;;8.30;99.90;;;;;;4975352;28;20116;-85
2021/12/17 03:56:18;;;;;;;77.95;20.92;;;8.20;99.90;;;;;;4974862;28;20062;-85
2021/12/17 03:58:44;;;;;;;62.15;18.00;;;8.20;99.90;;;;;;4973758;28;20077;-85
2021/12/17 04:01:10;;;;;;;44.58;15.68;;;8.20;99.90;;;;;;4990705;28;20058;-85
2021/12/17 04:03:35;;;;;;;49.50;15.95;;;8.20;99.90;;;;;;4958062;28;20121;-85
2021/12/17 04:06:01;;;;;;;51.25;15.68;;;8.20;99.90;;;;;;4974762;28;20050;-85
2021/12/17 04:08:27;;;;;;;54.63;16.33;;;8.20;99.90;;;;;;4990393;28;20057;-84
2021/12/17 04:11:02;;;;;;;45.17;14.38;;;8.20;99.90;;;;;;4974744;28;20165;-85
2021/12/17 04:13:32;;;;;;;47.75;14.48;;;8.20;99.90;;;;;;4991468;28;20065;-85
2021/12/17 04:16:06;;;;;;;33.67;11.75;;;8.20;99.90;;;;;;4991047;28;20050;-85
2021/12/17 04:18:33;;;;;;;34.88;11.88;;;8.10;99.90;;;;;;4975164;28;20411;-85
2021/12/17 04:21:03;;;;;;;32.97;11.55;;;8.10;99.90;;;;;;4991689;28;20486;-85
2021/12/17 04:23:31;;;;;;;31.00;11.20;;;8.10;99.90;;;;;;4990375;28;20085;-84
2021/12/17 04:25:57;;;;;;;30.13;11.25;;;8.00;99.90;;;;;;4974915;28;20062;-85
2021/12/17 04:28:22;;;;;;;28.40;10.57;;;8.00;99.90;;;;;;4974540;28;20137;-85
2021/12/17 04:30:48;;;;;;;31.95;12.82;;;8.00;99.90;;;;;;4990565;28;20054;-85
2021/12/17 04:33:14;;;;;;;34.00;11.57;;;8.40;99.90;;;;;;4958278;28;20058;-85
2021/12/17 04:35:40;;;;;;;35.03;12.82;;;8.00;99.90;;;;;;4974088;28;20089;-85
2021/12/17 04:38:08;;;;;;;50.35;13.05;;;8.00;99.90;;;;;;4974516;28;20401;-86
2021/12/17 04:40:36;;;;;;;33.90;11.82;;;8.00;99.90;;;;;;4990437;28;20163;-85
2021/12/17 04:45:42;;;;;;;33.38;12.82;;;8.00;99.90;;;;;;4977424;28;20141;-85
2021/12/17 04:59:16;;;;;;;45.53;12.90;;;8.00;99.90;;;;;;4925619;28;20047;-85
2021/12/17 05:01:42;;;;;;;34.97;11.85;;;8.00;99.90;;;;;;4987007;28;20111;-87
2021/12/17 05:04:08;;;;;;;30.15;11.73;;;8.00;99.90;;;;;;4993800;28;20066;-85
2021/12/17 05:06:33;;;;;;;48.30;13.25;;;8.00;99.90;;;;;;4977265;28;20062;-85
2021/12/17 05:09:07;;;;;;;42.13;13.18;;;8.70;99.90;;;;;;4993768;28;20046;-85
2021/12/17 05:19:51;;;;;;;40.28;14.07;;;8.10;99.90;;;;;;4993253;28;20065;-84
2021/12/17 05:22:18;;;;;;;51.13;15.70;;;8.00;99.90;;;;;;4994666;28;20046;-85
2021/12/17 05:24:43;;;;;;;78.35;17.25;;;8.10;99.90;;;;;;4993537;28;20486;-85
2021/12/17 05:27:09;;;;;;;58.38;17.15;;;8.10;99.90;;;;;;4977460;28;20054;-85
2021/12/17 05:29:35;;;;;;;52.28;16.58;;;8.20;99.90;;;;;;4976770;28;20113;-85
2021/12/17 05:32:01;;;;;;;53.40;16.05;;;8.20;99.90;;;;;;4977529;28;20453;-84
2021/12/17 05:34:26;;;;;;;50.50;15.48;;;8.10;99.90;;;;;;4993547;28;20050;-84
2021/12/17 05:36:52;;;;;;;60.58;16.75;;;8.10;99.90;;;;;;4976979;28;20050;-84
2021/12/17 05:39:17;;;;;;;49.55;16.05;;;8.00;99.90;;;;;;4993273;28;20042;-85
2021/12/17 05:41:45;;;;;;;45.22;15.13;;;8.00;99.90;;;;;;4992782;28;20457;-84
2021/12/17 05:44:14;;;;;;;58.20;15.80;;;8.00;99.90;;;;;;4993303;28;20055;-84
2021/12/17 05:46:49;;;;;;;48.92;15.88;;;8.00;99.90;;;;;;4977447;28;20105;-84
2021/12/17 05:49:20;;;;;;;51.00;15.38;;;8.00;99.90;;;;;;4993085;28;20054;-84
2021/12/17 05:51:46;;;;;;;50.13;15.15;;;8.10;99.90;;;;;;4976691;28;20058;-85
2021/12/17 05:54:12;;;;;;;62.95;15.80;;;8.10;99.90;;;;;;4977030;28;20048;-85
2021/12/17 05:56:39;;;;;;;52.97;16.10;;;8.10;99.90;;;;;;4992385;28;20411;-84
2021/12/17 05:59:05;;;;;;;56.90;15.90;;;8.10;99.90;;;;;;4992995;28;20093;-85
2021/12/17 06:01:31;;;;;;;52.47;15.38;;;8.00;99.90;;;;;;4977048;28;20057;-85
2021/12/17 06:03:57;;;;;;;53.33;16.60;;;8.10;99.90;;;;;;4992347;28;20058;-87
2021/12/17 06:06:49;;;;;;;56.83;16.52;;;8.00;99.90;;;;;;4976614;28;20387;-86
2021/12/17 06:09:15;;;;;;;44.88;16.25;;;8.10;99.90;;;;;;4991498;28;20058;-86
2021/12/17 06:11:41;;;;;;;47.42;16.08;;;8.10;99.90;;;;;;4972740;28;20061;-86
2021/12/17 06:14:06;;;;;;;49.65;16.25;;;8.00;99.90;;;;;;4976472;28;20069;-84
2021/12/17 06:16:35;;;;;;;55.63;16.65;;;8.00;99.90;;;;;;4992928;28;20129;-84
2021/12/17 06:19:01;;;;;;;55.42;16.88;;;8.00;99.90;;;;;;4976498;28;20058;-84
2021/12/17 06:21:27;;;;;;;53.17;16.65;;;8.00;99.90;;;;;;4976748;28;20096;-84
2021/12/17 06:23:53;;;;;;;53.30;17.25;;;8.00;99.90;;;;;;4992200;28;20046;-83
2021/12/17 06:26:18;;;;;;;68.00;17.75;;;8.00;99.90;;;;;;4992344;28;20046;-84
2021/12/17 06:28:49;;;;;;;55.10;17.00;;;8.20;99.90;;;;;;4991697;28;20065;-84
2021/12/17 06:31:16;;;;;;;61.30;18.48;;;8.00;99.90;;;;;;4993213;28;20514;-83
2021/12/17 06:33:41;;;;;;;55.53;16.85;;;8.00;99.90;;;;;;4993272;28;20155;-83
2021/12/17 06:36:07;;;;;;;49.03;15.80;;;8.00;99.90;;;;;;4993457;28;20081;-83
2021/12/17 06:38:33;;;;;;;60.75;17.05;;;8.00;99.90;;;;;;4992349;28;20089;-83
2021/12/17 06:40:58;;;;;;;52.90;17.48;;;8.00;99.90;;;;;;4975666;28;20042;-83
2021/12/17 06:43:32;;;;;;;44.22;15.68;;;8.00;99.90;;;;;;4992330;28;20046;-83
2021/12/17 06:46:16;;;;;;;49.75;15.98;;;8.00;99.90;;;;;;4991938;28;20062;-83
2021/12/17 06:48:42;;;;;;;51.60;17.27;;;8.00;99.90;;;;;;4991731;28;20620;-83
2021/12/17 06:59:32;;;;;;;41.05;15.48;;;8.00;99.90;;;;;;4991185;28;20070;-83
2021/12/17 07:10:28;;;;;;;38.33;15.20;;;7.90;99.90;;;;;;4991624;28;20050;-82
2021/12/17 07:23:47;;;;;;;44.83;16.33;;;8.00;99.90;;;;;;4992924;28;20473;-81
2021/12/17 07:32:16;;;;;;;54.92;17.30;;;8.00;99.90;;;;;;4991477;28;20503;-81
2021/12/17 07:34:15;;;;;;;50.03;18.40;;;8.00;99.90;;;;;;4991212;28;20357;-82
2021/12/17 07:36:56;;;;;;;48.28;17.15;;;8.00;99.90;;;;;;4991627;28;20446;-82
2021/12/17 07:39:22;;;;;;;52.55;18.50;;;8.00;99.90;;;;;;4977550;28;20441;-81
2021/12/17 07:41:47;;;;;;;60.28;19.08;;;8.00;99.90;;;;;;4991168;28;20138;-81
2021/12/17 07:44:13;;;;;;;56.70;18.25;;;8.00;99.90;;;;;;4975333;28;20498;-81
2021/12/17 07:46:39;;;;;;;52.55;17.98;;;8.00;99.90;;;;;;4992454;28;20054;-81
2021/12/17 07:49:04;;;;;;;61.88;19.88;;;8.00;99.90;;;;;;4974734;28;20089;-81
2021/12/17 07:51:30;;;;;;;56.55;17.92;;;8.10;99.90;;;;;;4991256;28;20086;-81
2021/12/17 07:53:56;;;;;;;62.42;20.20;;;8.10;99.90;;;;;;4974683;28;20054;-81
2021/12/17 07:56:25;;;;;;;56.53;18.83;;;8.10;99.90;;;;;;4959000;28;20054;-81
2021/12/17 07:58:51;;;;;;;57.85;20.08;;;8.10;99.90;;;;;;4974457;28;20054;-81
2021/12/17 08:01:16;;;;;;;50.95;17.98;;;8.10;99.90;;;;;;4992233;28;20541;-81
2021/12/17 08:03:42;;;;;;;62.05;19.40;;;8.10;99.90;;;;;;4991230;28;20134;-81
2021/12/17 08:06:08;;;;;;;55.13;18.55;;;8.10;99.90;;;;;;4990876;28;20054;-82
2021/12/17 08:08:34;;;;;;;70.10;20.13;;;8.10;99.90;;;;;;4974836;28;20050;-82
2021/12/17 08:11:00;;;;;;;66.35;20.38;;;8.10;99.90;;;;;;4989830;28;20066;-81
2021/12/17 08:13:29;;;;;;;61.35;20.90;;;8.20;99.90;;;;;;4990801;28;20058;-82
2021/12/17 08:26:42;;;;;;;58.42;19.08;;;8.20;99.90;;;;;;4990554;28;20061;-82
2021/12/17 08:29:28;;;;;;;53.55;18.55;;;8.30;99.90;;;;;;4976225;28;20065;-82
2021/12/17 08:31:53;;;;;;;57.47;19.92;;;8.20;99.90;;;;;;4990011;28;20060;-82
2021/12/17 08:34:19;;;;;;;59.00;19.73;;;8.20;99.90;;;;;;4974104;28;20051;-83
2021/12/17 08:36:45;;;;;;;47.90;18.63;;;8.30;99.90;;;;;;4973982;28;20113;-83
2021/12/17 08:39:10;;;;;;;60.03;20.42;;;8.30;99.90;;;;;;4989656;28;20376;-83
2021/12/17 08:41:39;;;;;;;48.83;17.98;;;8.30;99.90;;;;;;4973962;28;20042;-83
2021/12/17 08:44:05;;;;;;;53.97;19.38;;;8.30;99.90;;;;;;4989851;28;20070;-83
2021/12/17 08:46:30;;;;;;;54.47;20.25;;;8.30;99.90;;;;;;4990088;28;20069;-83
2021/12/17 08:48:56;;;;;;;51.63;19.85;;;8.40;99.90;;;;;;4973442;28;20055;-82
2021/12/17 08:51:22;;;;;;;54.22;19.88;;;8.40;99.90;;;;;;4973928;28;20487;-83
2021/12/17 08:53:47;;;;;;;57.47;20.17;;;8.30;99.90;;;;;;4990102;28;20379;-82
2021/12/17 08:56:20;;;;;;;58.00;20.40;;;8.40;99.90;;;;;;4989389;28;20047;-82
2021/12/17 08:58:52;;;;;;;53.22;19.30;;;8.40;99.90;;;;;;4974373;28;20133;-82
2021/12/17 09:01:18;;;;;;;53.60;19.88;;;8.40;99.90;;;;;;4989345;28;20066;-83
2021/12/17 09:03:45;;;;;;;53.45;19.70;;;8.50;99.90;;;;;;4991092;28;20133;-82
2021/12/17 09:06:10;;;;;;;50.78;19.48;;;8.40;99.90;;;;;;4989644;28;20054;-81
2021/12/17 09:08:36;;;;;;;47.85;18.17;;;8.50;99.90;;;;;;4973848;28;20096;-81
2021/12/17 09:11:02;;;;;;;48.15;19.27;;;8.50;99.90;;;;;;4990503;28;20482;-80
2021/12/17 09:13:28;;;;;;;50.90;18.30;;;8.50;99.90;;;;;;4989712;28;20453;-82
2021/12/17 09:15:55;;;;;;;47.33;18.08;;;8.50;99.90;;;;;;4989533;28;20129;-81
2021/12/17 09:18:20;;;;;;;43.25;18.63;;;8.50;99.90;;;;;;4973136;28;20066;-82
2021/12/17 09:20:46;;;;;;;51.40;19.35;;;8.50;99.90;;;;;;4973589;28;20061;-82
2021/12/17 09:23:12;;;;;;;45.70;18.65;;;8.50;99.90;;;;;;4989270;28;20392;-82
2021/12/17 09:25:38;;;;;;;42.47;18.20;;;8.60;99.90;;;;;;4964049;28;20051;-82
2021/12/17 09:28:05;;;;;;;44.75;18.50;;;8.60;99.90;;;;;;4985771;28;20052;-82
2021/12/17 09:30:30;;;;;;;41.65;18.90;;;8.60;99.90;;;;;;4975946;28;20105;-82
2021/12/17 09:32:56;;;;;;;41.20;18.88;;;8.70;99.90;;;;;;4976751;28;20430;-82
2021/12/17 09:35:24;;;;;;;39.83;16.88;;;8.70;99.90;;;;;;4976554;28;20502;-83
2021/12/17 09:37:50;;;;;;;37.92;17.38;;;8.70;99.90;;;;;;4977203;28;20522;-83
2021/12/17 09:40:17;;;;;;;43.35;18.70;;;8.80;99.90;;;;;;4992371;28;20088;-82
2021/12/17 09:42:44;;;;;;;37.00;17.42;;;8.80;99.90;;;;;;4992773;28;20116;-82
2021/12/17 09:45:11;;;;;;;36.53;17.20;;;8.80;99.90;;;;;;4976615;28;20491;-82
2021/12/17 09:47:37;;;;;;;36.28;17.30;;;8.80;99.90;;;;;;4976604;28;20504;-82
2021/12/17 09:50:03;;;;;;;34.97;16.58;;;8.90;99.90;;;;;;4992034;28;20046;-83
2021/12/17 09:52:28;;;;;;;36.95;16.83;;;8.90;99.90;;;;;;4992833;28;20065;-82
2021/12/17 09:54:57;;;;;;;35.05;16.52;;;8.90;99.90;;;;;;4992476;28;20050;-82
2021/12/17 09:57:23;;;;;;;39.92;18.48;;;8.90;99.90;;;;;;4992047;28;20495;-81
2021/12/17 09:59:48;;;;;;;33.90;17.15;;;9.20;99.90;;;;;;4992140;28;20093;-81
2021/12/17 10:02:14;;;;;;;35.15;16.88;;;8.90;99.90;;;;;;4992925;28;20054;-82
2021/12/17 10:04:42;;;;;;;31.60;15.43;;;8.90;99.90;;;;;;4992656;28;20054;-81
2021/12/17 10:07:21;;;;;;;34.30;17.13;;;9.00;99.90;;;;;;4992233;28;20050;-82
2021/12/17 10:09:47;;;;;;;34.25;16.92;;;9.00;99.90;;;;;;4991913;28;20069;-83
2021/12/17 10:12:13;;;;;;;31.65;16.10;;;9.00;99.90;;;;;;4992147;28;20050;-82
2021/12/17 10:14:41;;;;;;;33.15;16.50;;;9.00;99.90;;;;;;4993590;28;20073;-82
2021/12/17 10:17:12;;;;;;;33.88;15.60;;;9.00;99.90;;;;;;4992209;28;20054;-82
2021/12/17 10:19:48;;;;;;;32.15;15.60;;;9.00;99.90;;;;;;4976316;28;20051;-82
2021/12/17 10:22:15;;;;;;;28.52;14.98;;;9.00;99.90;;;;;;4992157;28;20066;-82
2021/12/17 10:24:45;;;;;;;30.05;15.93;;;9.00;99.90;;;;;;4976218;28;20479;-82
2021/12/17 10:27:26;;;;;;;31.50;15.55;;;9.00;99.90;;;;;;4959250;28;20054;-82
2021/12/17 10:29:52;;;;;;;29.55;14.98;;;9.00;99.90;;;;;;4975831;28;20438;-82
2021/12/17 10:32:19;;;;;;;27.98;14.88;;;9.10;99.90;;;;;;4991484;28;20054;-82
2021/12/17 10:35:06;;;;;;;31.13;15.90;;;9.00;99.90;;;;;;4976169;28;20108;-81
2021/12/17 10:37:39;;;;;;;31.00;15.27;;;9.10;99.90;;;;;;4991535;28;20195;-81
2021/12/17 10:40:15;;;;;;;32.75;15.18;;;9.10;99.90;;;;;;4991887;28;20061;-82
2021/12/17 10:42:49;;;;;;;34.35;15.68;;;9.10;99.90;;;;;;4990691;28;20057;-82
2021/12/17 10:45:23;;;;;;;30.85;15.88;;;9.20;99.90;;;;;;4991340;28;20532;-82
2021/12/17 10:48:01;;;;;;;;;;;9.20;99.90;;;;;;4977378;28;20102;-82
2021/12/17 10:50:27;;;;;;;37.00;16.55;;;9.20;99.90;;;;;;4991402;28;20025;-82
2021/12/17 10:52:57;;;;;;;33.05;16.13;;;9.30;99.90;;;;;;4991672;28;20057;-83
2021/12/17 10:55:24;;;;;;;37.58;15.60;;;9.30;99.90;;;;;;4975098;28;20479;-83
2021/12/17 10:57:50;;;;;;;41.13;18.63;;;9.30;99.90;;;;;;4991432;28;20051;-83
2021/12/17 11:00:16;;;;;;;38.25;16.95;;;9.30;99.90;;;;;;4974303;28;20120;-82
2021/12/17 11:02:52;;;;;;;35.20;16.77;;;9.30;99.90;;;;;;4991512;28;20054;-82
2021/12/17 11:05:18;;;;;;;35.35;16.25;;;9.30;99.90;;;;;;4967143;28;20054;-82
2021/12/17 11:07:45;;;;;;;36.28;17.20;;;9.40;99.90;;;;;;4958899;28;20054;-81
2021/12/17 11:10:11;;;;;;;34.70;16.55;;;9.50;99.90;;;;;;4980926;28;20054;-82
2021/12/17 11:12:38;;;;;;;36.00;17.95;;;9.40;99.90;;;;;;4971751;28;20399;-82
2021/12/17 11:15:13;;;;;;;34.40;15.73;;;9.50;99.90;;;;;;4988229;28;20042;-81
2021/12/17 11:17:40;;;;;;;35.35;17.05;;;9.60;99.90;;;;;;4992293;28;20058;-81
2021/12/17 11:20:31;;;;;;;39.63;17.17;;;9.50;99.90;;;;;;4974843;28;20072;-81
2021/12/17 11:23:03;;;;;;;36.97;17.27;;;9.50;99.90;;;;;;4967557;28;20104;-82
2021/12/17 11:25:28;;;;;;;39.45;16.20;;;9.50;99.90;;;;;;5003306;28;20077;-81
2021/12/17 11:27:54;;;;;;;37.80;16.15;;;9.50;99.90;;;;;;4992300;28;20082;-81
2021/12/17 11:30:21;;;;;;;33.63;16.00;;;9.50;99.90;;;;;;4990625;28;20141;-82
2021/12/17 11:32:48;;;;;;;39.00;16.75;;;9.50;99.90;;;;;;4990901;28;20148;-81
2021/12/17 11:35:19;;;;;;;30.85;15.82;;;9.50;99.90;;;;;;4958863;28;20062;-82
2021/12/17 11:37:45;;;;;;;36.00;16.40;;;9.60;99.90;;;;;;4990812;28;20046;-81
2021/12/17 11:40:31;;;;;;;33.70;16.02;;;9.60;99.90;;;;;;4974515;28;20109;-81
2021/12/17 11:43:23;;;;;;;35.15;15.55;;;9.60;99.90;;;;;;4977411;28;20053;-82
2021/12/17 11:46:02;;;;;;;30.77;15.00;;;9.60;99.90;;;;;;4990973;28;20054;-81
2021/12/17 11:48:30;;;;;;;31.27;15.52;;;9.60;99.90;;;;;;4990337;28;20054;-81
2021/12/17 11:51:13;;;;;;;28.50;14.68;;;9.60;99.90;;;;;;4990672;28;20089;-82
2021/12/17 11:54:07;;;;;;;37.40;15.32;;;9.60;99.90;;;;;;4973734;28;20647;-82
2021/12/17 11:56:35;;;;;;;25.02;12.45;;;9.70;99.90;;;;;;4990279;28;20058;-82
2021/12/17 11:59:02;;;;;;;25.63;12.27;;;9.70;99.90;;;;;;4973941;28;20062;-83
2021/12/17 12:01:50;;;;;;;22.13;11.77;;;10.00;99.90;;;;;;4989876;28;20054;-83
2021/12/17 12:04:44;;;;;;;23.45;12.57;;;9.80;99.90;;;;;;4973437;28;20480;-82
2021/12/17 12:07:15;;;;;;;23.55;10.73;;;9.80;99.90;;;;;;4975875;28;20050;-82
2021/12/17 12:10:17;;;;;;;20.98;11.45;;;10.00;99.90;;;;;;4989707;28;20046;-81
2021/12/17 12:12:46;;;;;;;24.50;11.45;;;9.80;99.90;;;;;;4989078;28;20054;-82
2021/12/17 12:15:24;;;;;;;19.85;11.07;;;9.90;99.90;;;;;;4990312;28;20057;-82
2021/12/17 12:18:02;;;;;;;19.52;11.25;;;9.80;99.90;;;;;;4991290;28;20069;-82
2021/12/17 12:20:56;;;;;;;23.75;10.63;;;9.80;99.90;;;;;;4989531;28;20050;-82
2021/12/17 12:23:30;;;;;;;17.10;9.38;;;10.00;99.90;;;;;;4989409;28;20400;-81
2021/12/17 12:26:03;;;;;;;12.18;6.68;;;10.10;99.90;;;;;;4989943;28;20057;-81
2021/12/17 12:28:49;;;;;;;15.00;8.07;;;10.10;99.90;;;;;;4990802;28;20046;-81
2021/12/17 12:31:24;;;;;;;12.68;7.43;;;10.00;99.90;;;;;;4991083;28;20117;-81
2021/12/17 12:34:08;;;;;;;15.55;8.52;;;9.90;99.90;;;;;;4991180;28;20133;-81
2021/12/17 12:36:47;;;;;;;13.95;8.05;;;9.90;99.90;;;;;;4989653;28;20069;-82
2021/12/17 12:39:32;;;;;;;16.63;8.57;;;9.90;99.90;;;;;;4990937;28;20097;-82
2021/12/17 12:42:22;;;;;;;21.08;9.10;;;9.90;99.90;;;;;;4991370;28;20480;-79
2021/12/17 12:44:47;;;;;;;15.77;9.00;;;9.80;99.90;;;;;;4984134;28;20141;-80
2021/12/17 12:47:31;;;;;;;14.32;8.00;;;9.60;99.90;;;;;;4990953;28;20154;-81
2021/12/17 12:50:03;;;;;;;11.83;7.20;;;9.70;99.90;;;;;;4990954;28;20090;-81
2021/12/17 12:52:29;;;;;;;16.40;8.05;;;9.60;99.90;;;;;;4990474;28;20321;-82
2021/12/17 12:55:11;;;;;;;10.95;6.60;;;9.60;99.90;;;;;;4991256;28;20086;-82
2021/12/17 12:57:58;;;;;;;13.25;6.80;;;9.60;99.90;;;;;;4989253;28;20050;-83
2021/12/17 13:00:26;;;;;;;10.57;6.22;;;9.70;99.90;;;;;;4990797;28;20058;-81
2021/12/17 13:02:58;;;;;;;13.27;6.60;;;9.70;99.90;;;;;;4990748;28;20061;-81
2021/12/17 13:05:24;;;;;;;9.45;5.43;;;9.80;99.90;;;;;;4990022;28;20057;-81
2021/12/17 13:07:52;;;;;;;9.95;5.85;;;10.00;99.90;;;;;;4994078;28;20050;-80
2021/12/17 13:10:38;;;;;;;10.60;5.78;;;9.80;99.90;;;;;;4994771;28;20364;-82
2021/12/17 13:13:22;;;;;;;10.90;6.00;;;9.80;99.90;;;;;;4993571;28;20054;-82
2021/12/17 13:24:23;;;;;;;11.50;7.95;;;9.60;99.90;;;;;;4993540;28;20054;-82
2021/12/17 13:27:03;;;;;;;9.00;6.03;;;9.60;99.90;;;;;;4992824;28;20385;-81
2021/12/17 13:29:31;;;;;;;8.77;6.05;;;9.50;99.90;;;;;;4992916;28;20487;-81
2021/12/17 13:32:03;;;;;;;9.25;5.65;;;9.50;99.90;;;;;;4993095;28;20053;-81
2021/12/17 13:34:48;;;;;;;7.65;5.57;;;9.70;99.90;;;;;;4976491;28;20062;-80
2021/12/17 13:37:24;;;;;;;9.07;5.38;;;9.70;99.90;;;;;;4992925;28;20094;-81
2021/12/17 13:40:07;;;;;;;11.10;6.20;;;9.70;99.90;;;;;;4976471;28;20058;-80
2021/12/17 13:42:43;;;;;;;8.52;5.82;;;9.60;99.90;;;;;;4972609;28;20042;-80
2021/12/17 13:45:10;;;;;;;9.90;7.15;;;9.70;99.90;;;;;;4974551;28;20047;-81
2021/12/17 13:47:40;;;;;;;8.70;6.63;;;9.50;99.90;;;;;;4974252;28;20054;-81
2021/12/17 13:50:13;;;;;;;9.02;6.13;;;9.50;99.90;;;;;;4974269;28;20464;-82
2021/12/17 13:53:12;;;;;;;9.13;5.70;;;9.70;99.90;;;;;;4973941;28;20121;-81
2021/12/17 13:55:42;;;;;;;8.98;5.93;;;9.60;99.90;;;;;;4966838;28;20135;-82
2021/12/17 13:58:10;;;;;;;7.15;5.00;;;9.60;99.90;;;;;;4973217;28;20097;-81
2021/12/17 14:00:39;;;;;;;11.63;7.70;;;9.60;99.90;;;;;;4972533;28;20059;-81
2021/12/17 14:03:05;;;;;;;7.25;5.72;;;9.60;99.90;;;;;;4973073;28;20054;-81
2021/12/17 14:05:40;;;;;;;8.75;6.30;;;9.50;99.90;;;;;;4974225;28;20057;-81
2021/12/17 14:08:08;;;;;;;7.82;5.65;;;9.50;99.90;;;;;;4989046;28;20050;-81
2021/12/17 14:10:34;;;;;;;10.45;6.63;;;9.40;99.90;;;;;;4972956;28;20055;-80
2021/12/17 14:13:01;;;;;;;10.07;7.63;;;9.40;99.90;;;;;;4974180;28;20113;-81
2021/12/17 14:15:29;;;;;;;11.85;8.65;;;9.40;99.90;;;;;;4972944;28;20421;-81
2021/12/17 14:17:58;;;;;;;11.00;8.27;;;9.40;99.90;;;;;;4973077;28;20061;-81
2021/12/17 14:20:25;;;;;;;12.05;9.05;;;9.40;99.90;;;;;;4972720;28;20050;-81
2021/12/17 14:22:55;;;;;;;11.82;8.27;;;9.40;99.90;;;;;;4973472;28;20097;-82
2021/12/17 14:25:31;;;;;;;16.98;8.77;;;9.30;99.90;;;;;;4972779;28;20047;-81
2021/12/17 14:28:23;;;;;;;11.13;7.57;;;9.40;99.90;;;;;;4973425;28;20121;-82
2021/12/17 14:31:01;;;;;;;11.18;7.95;;;9.40;99.90;;;;;;4973365;28;20105;-81
2021/12/17 14:33:31;;;;;;;10.13;7.13;;;9.40;99.90;;;;;;4972576;28;20050;-81
2021/12/17 14:36:08;;;;;;;15.35;8.57;;;9.30;99.90;;;;;;4973388;28;20061;-81
2021/12/17 14:38:59;;;;;;;10.55;7.93;;;9.30;99.90;;;;;;4972546;28;20058;-81
2021/12/17 14:41:47;;;;;;;12.02;7.32;;;9.30;99.90;;;;;;4973427;28;20094;-82
2021/12/17 14:44:35;;;;;;;16.65;8.80;;;9.40;99.90;;;;;;4972161;28;20050;-83
2021/12/17 14:47:22;;;;;;;10.50;8.20;;;9.30;99.90;;;;;;4972915;28;20086;-81
2021/12/17 15:00:12;;;;;;;11.50;8.43;;;9.30;99.90;;;;;;4973340;28;20475;-82
2021/12/17 15:03:42;;;;;;;13.23;9.85;;;9.30;99.90;;;;;;4958100;28;20403;-82
2021/12/17 15:06:15;;;;;;;12.35;9.95;;;9.30;99.90;;;;;;4971894;28;20105;-82
2021/12/17 15:08:41;;;;;;;13.48;9.73;;;9.30;99.90;;;;;;4971557;28;20042;-81
2021/12/17 15:11:24;;;;;;;16.13;9.85;;;9.30;99.90;;;;;;4971126;28;20569;-81
2021/12/17 15:13:50;;;;;;;20.67;12.90;;;9.30;99.90;;;;;;4971536;28;20054;-82
2021/12/17 15:16:16;;;;;;;17.23;8.98;;;9.30;99.90;;;;;;4972108;28;20117;-83
2021/12/17 15:18:43;;;;;;;17.02;9.73;;;9.30;99.90;;;;;;4972838;28;20046;-86
2021/12/17 15:21:09;;;;;;;12.23;8.55;;;9.30;99.90;;;;;;4971899;28;20069;-85
2021/12/17 15:23:35;;;;;;;13.95;10.05;;;9.30;99.90;;;;;;4955891;28;20051;-85
2021/12/17 15:26:01;;;;;;;11.85;7.95;;;9.30;99.90;;;;;;4971436;28;20051;-85
2021/12/17 15:28:27;;;;;;;10.95;7.50;;;9.20;99.90;;;;;;4954961;28;20105;-84
2021/12/17 15:30:57;;;;;;;11.23;7.03;;;9.20;99.90;;;;;;4955688;28;20471;-85
2021/12/17 15:33:22;;;;;;;13.32;8.40;;;9.30;99.90;;;;;;4973172;28;20470;-85
2021/12/17 15:35:49;;;;;;;11.50;7.85;;;9.20;99.90;;;;;;4971180;28;20059;-84
2021/12/17 15:38:15;;;;;;;14.07;8.90;;;9.20;99.90;;;;;;4955801;28;20066;-85
2021/12/17 15:40:43;;;;;;;14.05;11.38;;;9.30;99.90;;;;;;4955912;28;20054;-86
2021/12/17 15:43:09;;;;;;;17.58;12.40;;;9.20;99.90;;;;;;4955152;28;20373;-85
2021/12/17 15:45:37;;;;;;;14.80;9.10;;;9.30;99.90;;;;;;4973047;28;20065;-85
2021/12/17 15:48:04;;;;;;;14.88;9.80;;;9.20;99.90;;;;;;4955470;28;20050;-86
2021/12/17 15:50:29;;;;;;;11.93;8.90;;;9.20;99.90;;;;;;4955687;28;20097;-86
2021/12/17 15:52:55;;;;;;;14.05;10.27;;;9.30;99.90;;;;;;4971107;28;20094;-86
2021/12/17 15:55:23;;;;;;;16.02;9.73;;;9.30;99.90;;;;;;4972041;28;20051;-86